sensor_id;sensor_type;location;lat;lon;timestamp;temperature;humidity
21149;DHT22;10732;51.472;6.466;2023-06-22T00:02:18;20.20;1.00
21149;DHT22;10732;51.472;6.466;2023-06-22T00:04:43;20.30;1.00
21149;DHT22;10732;51.472;6.466;2023-06-22T00:07:09;20.30;1.00
21149;DHT22;10732;51.472;6.466;2023-06-22T00:09:36;20.30;1.00
21149;DHT22;10732;51.472;6.466;2023-06-22T00:12:01;20.20;1.00
21149;DHT22;10732;51.472;6.466;2023-06-22T00:14:27;20.20;1.00
21149;DHT22;10732;51.472;6.466;2023-06-22T00:16:53;20.20;1.00
21149;DHT22;10732;51.472;6.466;2023-06-22T00:19:23;20.30;1.00
21149;DHT22;10732;51.472;6.466;2023-06-22T00:21:52;20.30;1.00
21149;DHT22;10732;51.472;6.466;2023-06-22T00:24:21;20.30;1.00
21149;DHT22;10732;51.472;6.466;2023-06-22T00:26:48;20.30;1.00
21149;DHT22;10732;51.472;6.466;2023-06-22T00:29:14;20.40;1.00
21149;DHT22;10732;51.472;6.466;2023-06-22T00:31:40;20.40;1.00
21149;DHT22;10732;51.472;6.466;2023-06-22T00:34:05;20.30;1.00
21149;DHT22;10732;51.472;6.466;2023-06-22T00:36:32;20.30;1.00
21149;DHT22;10732;51.472;6.466;2023-06-22T00:38:57;20.30;1.00
21149;DHT22;10732;51.472;6.466;2023-06-22T00:41:23;20.40;1.00
21149;DHT22;10732;51.472;6.466;2023-06-22T00:43:49;20.30;1.00
21149;DHT22;10732;51.472;6.466;2023-06-22T00:46:14;20.30;1.00
21149;DHT22;10732;51.472;6.466;2023-06-22T00:48:40;20.20;1.00
21149;DHT22;10732;51.472;6.466;2023-06-22T00:51:09;20.20;1.00
21149;DHT22;10732;51.472;6.466;2023-06-22T00:53:35;20.10;1.00
21149;DHT22;10732;51.472;6.466;2023-06-22T00:56:03;20.10;1.00
21149;DHT22;10732;51.472;6.466;2023-06-22T00:58:29;20.10;1.00
21149;DHT22;10732;51.472;6.466;2023-06-22T01:00:55;20.10;1.00
21149;DHT22;10732;51.472;6.466;2023-06-22T01:03:21;20.10;1.00
21149;DHT22;10732;51.472;6.466;2023-06-22T01:05:47;20.00;1.00
21149;DHT22;10732;51.472;6.466;2023-06-22T01:08:36;20.00;11.40
21149;DHT22;10732;51.472;6.466;2023-06-22T01:11:10;20.00;15.30
21149;DHT22;10732;51.472;6.466;2023-06-22T01:13:44;20.00;15.30
21149;DHT22;10732;51.472;6.466;2023-06-22T01:16:16;19.90;34.10
21149;DHT22;10732;51.472;6.466;2023-06-22T01:18:43;19.90;51.70
21149;DHT22;10732;51.472;6.466;2023-06-22T01:21:13;19.90;36.50
21149;DHT22;10732;51.472;6.466;2023-06-22T01:29:04;19.80;99.90
21149;DHT22;10732;51.472;6.466;2023-06-22T01:31:31;19.70;99.90
21149;DHT22;10732;51.472;6.466;2023-06-22T01:34:01;19.70;99.90
21149;DHT22;10732;51.472;6.466;2023-06-22T01:36:28;19.70;95.70
21149;DHT22;10732;51.472;6.466;2023-06-22T01:38:55;19.70;92.40
21149;DHT22;10732;51.472;6.466;2023-06-22T01:41:24;19.70;98.60
21149;DHT22;10732;51.472;6.466;2023-06-22T01:43:50;19.70;93.50
21149;DHT22;10732;51.472;6.466;2023-06-22T01:46:18;19.70;99.90
21149;DHT22;10732;51.472;6.466;2023-06-22T01:48:45;19.60;99.90
21149;DHT22;10732;51.472;6.466;2023-06-22T01:51:11;19.60;99.90
21149;DHT22;10732;51.472;6.466;2023-06-22T01:53:37;19.60;99.90
21149;DHT22;10732;51.472;6.466;2023-06-22T01:56:03;19.60;99.90
21149;DHT22;10732;51.472;6.466;2023-06-22T01:58:30;19.60;99.90
21149;DHT22;10732;51.472;6.466;2023-06-22T02:00:59;19.60;99.90
21149;DHT22;10732;51.472;6.466;2023-06-22T02:03:34;19.50;99.90
21149;DHT22;10732;51.472;6.466;2023-06-22T02:06:05;19.50;99.90
21149;DHT22;10732;51.472;6.466;2023-06-22T02:08:38;19.50;99.90
21149;DHT22;10732;51.472;6.466;2023-06-22T02:11:06;19.50;99.90
21149;DHT22;10732;51.472;6.466;2023-06-22T02:13:33;19.40;99.90
21149;DHT22;10732;51.472;6.466;2023-06-22T02:16:00;19.40;99.90
21149;DHT22;10732;51.472;6.466;2023-06-22T02:18:26;19.40;99.90
21149;DHT22;10732;51.472;6.466;2023-06-22T02:20:52;19.40;99.90
21149;DHT22;10732;51.472;6.466;2023-06-22T02:23:17;19.40;99.90
21149;DHT22;10732;51.472;6.466;2023-06-22T02:25:43;19.50;99.90
21149;DHT22;10732;51.472;6.466;2023-06-22T02:28:09;19.40;99.90
21149;DHT22;10732;51.472;6.466;2023-06-22T02:30:35;19.50;99.90
21149;DHT22;10732;51.472;6.466;2023-06-22T02:33:01;19.50;99.90
21149;DHT22;10732;51.472;6.466;2023-06-22T02:35:27;19.50;99.90
21149;DHT22;10732;51.472;6.466;2023-06-22T02:38:00;19.50;99.90
21149;DHT22;10732;51.472;6.466;2023-06-22T02:40:26;19.50;99.90
21149;DHT22;10732;51.472;6.466;2023-06-22T02:42:52;19.50;92.30
21149;DHT22;10732;51.472;6.466;2023-06-22T02:45:17;19.50;52.90
21149;DHT22;10732;51.472;6.466;2023-06-22T02:47:43;19.50;52.40
21149;DHT22;10732;51.472;6.466;2023-06-22T02:50:09;19.60;76.70
21149;DHT22;10732;51.472;6.466;2023-06-22T02:52:35;19.50;93.60
21149;DHT22;10732;51.472;6.466;2023-06-22T02:55:00;19.60;58.70
21149;DHT22;10732;51.472;6.466;2023-06-22T02:57:26;19.60;95.70
21149;DHT22;10732;51.472;6.466;2023-06-22T02:59:51;19.50;99.90
21149;DHT22;10732;51.472;6.466;2023-06-22T03:02:17;19.50;99.90
21149;DHT22;10732;51.472;6.466;2023-06-22T03:04:44;19.50;99.90
21149;DHT22;10732;51.472;6.466;2023-06-22T03:07:09;19.40;99.90
21149;DHT22;10732;51.472;6.466;2023-06-22T03:09:35;19.40;99.90
21149;DHT22;10732;51.472;6.466;2023-06-22T03:12:01;19.40;99.90
21149;DHT22;10732;51.472;6.466;2023-06-22T03:14:27;19.30;99.90
21149;DHT22;10732;51.472;6.466;2023-06-22T03:16:53;19.30;99.90
21149;DHT22;10732;51.472;6.466;2023-06-22T03:19:18;19.20;99.90
21149;DHT22;10732;51.472;6.466;2023-06-22T03:21:45;19.20;99.90
21149;DHT22;10732;51.472;6.466;2023-06-22T03:24:10;19.20;99.90
21149;DHT22;10732;51.472;6.466;2023-06-22T03:26:36;19.10;99.90
21149;DHT22;10732;51.472;6.466;2023-06-22T03:29:01;19.10;99.90
21149;DHT22;10732;51.472;6.466;2023-06-22T03:31:27;19.10;99.90
21149;DHT22;10732;51.472;6.466;2023-06-22T03:33:52;19.00;99.90
21149;DHT22;10732;51.472;6.466;2023-06-22T03:36:18;19.00;99.90
21149;DHT22;10732;51.472;6.466;2023-06-22T03:38:45;19.00;99.90
21149;DHT22;10732;51.472;6.466;2023-06-22T03:41:11;19.00;99.90
21149;DHT22;10732;51.472;6.466;2023-06-22T03:43:36;18.90;99.90
21149;DHT22;10732;51.472;6.466;2023-06-22T03:46:02;19.00;99.90
21149;DHT22;10732;51.472;6.466;2023-06-22T03:48:27;18.90;99.90
21149;DHT22;10732;51.472;6.466;2023-06-22T03:50:53;18.90;99.90
21149;DHT22;10732;51.472;6.466;2023-06-22T03:53:18;18.90;99.90
21149;DHT22;10732;51.472;6.466;2023-06-22T03:55:51;18.90;99.90
21149;DHT22;10732;51.472;6.466;2023-06-22T03:58:18;18.90;99.90
21149;DHT22;10732;51.472;6.466;2023-06-22T04:00:45;19.00;99.90
21149;DHT22;10732;51.472;6.466;2023-06-22T04:03:11;19.00;99.90
21149;DHT22;10732;51.472;6.466;2023-06-22T04:05:38;19.10;99.90
21149;DHT22;10732;51.472;6.466;2023-06-22T04:08:04;19.20;99.90
21149;DHT22;10732;51.472;6.466;2023-06-22T04:10:30;19.30;99.90
21149;DHT22;10732;51.472;6.466;2023-06-22T04:12:56;19.40;99.90
21149;DHT22;10732;51.472;6.466;2023-06-22T04:15:21;19.50;99.90
21149;DHT22;10732;51.472;6.466;2023-06-22T04:17:47;19.60;99.90
21149;DHT22;10732;51.472;6.466;2023-06-22T04:20:13;19.70;99.90
21149;DHT22;10732;51.472;6.466;2023-06-22T04:22:38;19.80;99.90
21149;DHT22;10732;51.472;6.466;2023-06-22T04:25:06;19.70;99.90
21149;DHT22;10732;51.472;6.466;2023-06-22T04:27:33;19.70;99.90
21149;DHT22;10732;51.472;6.466;2023-06-22T04:30:03;19.70;99.90
21149;DHT22;10732;51.472;6.466;2023-06-22T04:32:28;19.80;99.90
21149;DHT22;10732;51.472;6.466;2023-06-22T04:34:54;19.80;99.90
21149;DHT22;10732;51.472;6.466;2023-06-22T04:37:19;19.80;99.90
21149;DHT22;10732;51.472;6.466;2023-06-22T04:39:48;19.80;99.90
21149;DHT22;10732;51.472;6.466;2023-06-22T04:42:14;19.60;99.90
21149;DHT22;10732;51.472;6.466;2023-06-22T04:44:40;19.60;99.90
21149;DHT22;10732;51.472;6.466;2023-06-22T04:47:07;19.60;99.90
21149;DHT22;10732;51.472;6.466;2023-06-22T04:49:34;19.50;99.90
21149;DHT22;10732;51.472;6.466;2023-06-22T04:52:02;19.50;99.90
21149;DHT22;10732;51.472;6.466;2023-06-22T04:54:28;19.70;99.90
21149;DHT22;10732;51.472;6.466;2023-06-22T04:56:54;19.70;99.90
21149;DHT22;10732;51.472;6.466;2023-06-22T04:59:28;19.70;99.90
21149;DHT22;10732;51.472;6.466;2023-06-22T05:01:56;19.50;99.90
21149;DHT22;10732;51.472;6.466;2023-06-22T05:04:22;19.50;99.90
21149;DHT22;10732;51.472;6.466;2023-06-22T05:06:51;19.50;99.90
21149;DHT22;10732;51.472;6.466;2023-06-22T05:09:17;19.50;99.90
21149;DHT22;10732;51.472;6.466;2023-06-22T05:11:44;19.50;99.90
21149;DHT22;10732;51.472;6.466;2023-06-22T05:14:09;19.50;99.90
21149;DHT22;10732;51.472;6.466;2023-06-22T05:16:36;19.50;99.90
21149;DHT22;10732;51.472;6.466;2023-06-22T05:19:01;19.50;99.90
21149;DHT22;10732;51.472;6.466;2023-06-22T05:21:29;19.60;99.90
21149;DHT22;10732;51.472;6.466;2023-06-22T05:23:55;19.60;99.90
21149;DHT22;10732;51.472;6.466;2023-06-22T05:26:25;19.70;99.90
21149;DHT22;10732;51.472;6.466;2023-06-22T05:28:51;19.70;99.90
21149;DHT22;10732;51.472;6.466;2023-06-22T05:31:17;19.80;99.90
21149;DHT22;10732;51.472;6.466;2023-06-22T05:33:45;19.70;99.90
21149;DHT22;10732;51.472;6.466;2023-06-22T05:36:11;19.70;99.90
21149;DHT22;10732;51.472;6.466;2023-06-22T05:38:38;19.70;99.90
21149;DHT22;10732;51.472;6.466;2023-06-22T05:41:04;19.80;99.90
21149;DHT22;10732;51.472;6.466;2023-06-22T05:43:30;19.70;99.90
21149;DHT22;10732;51.472;6.466;2023-06-22T05:45:56;19.70;99.90
21149;DHT22;10732;51.472;6.466;2023-06-22T05:48:21;19.70;99.90
21149;DHT22;10732;51.472;6.466;2023-06-22T05:50:47;19.70;99.90
21149;DHT22;10732;51.472;6.466;2023-06-22T05:53:12;19.80;99.90
21149;DHT22;10732;51.472;6.466;2023-06-22T05:55:38;19.80;99.90
21149;DHT22;10732;51.472;6.466;2023-06-22T05:58:03;19.90;99.90
21149;DHT22;10732;51.472;6.466;2023-06-22T06:00:29;19.80;99.90
21149;DHT22;10732;51.472;6.466;2023-06-22T06:02:55;19.80;99.90
21149;DHT22;10732;51.472;6.466;2023-06-22T06:05:21;19.80;99.90
21149;DHT22;10732;51.472;6.466;2023-06-22T06:07:46;19.90;99.90
21149;DHT22;10732;51.472;6.466;2023-06-22T06:10:13;19.90;99.90
21149;DHT22;10732;51.472;6.466;2023-06-22T06:12:38;19.90;99.90
21149;DHT22;10732;51.472;6.466;2023-06-22T06:15:04;19.90;99.90
21149;DHT22;10732;51.472;6.466;2023-06-22T06:17:30;19.90;99.90
21149;DHT22;10732;51.472;6.466;2023-06-22T06:19:56;19.80;99.90
21149;DHT22;10732;51.472;6.466;2023-06-22T06:22:21;19.80;99.90
21149;DHT22;10732;51.472;6.466;2023-06-22T06:24:48;19.80;99.90
21149;DHT22;10732;51.472;6.466;2023-06-22T06:27:14;19.90;99.90
21149;DHT22;10732;51.472;6.466;2023-06-22T06:29:40;19.90;99.90
21149;DHT22;10732;51.472;6.466;2023-06-22T06:32:06;20.00;99.90
21149;DHT22;10732;51.472;6.466;2023-06-22T06:34:31;20.00;99.90
21149;DHT22;10732;51.472;6.466;2023-06-22T06:36:57;20.00;99.90
21149;DHT22;10732;51.472;6.466;2023-06-22T06:39:22;19.90;99.90
21149;DHT22;10732;51.472;6.466;2023-06-22T06:41:48;20.00;99.90
21149;DHT22;10732;51.472;6.466;2023-06-22T06:44:14;19.90;99.90
21149;DHT22;10732;51.472;6.466;2023-06-22T06:46:39;19.80;99.90
21149;DHT22;10732;51.472;6.466;2023-06-22T06:49:05;19.90;99.90
21149;DHT22;10732;51.472;6.466;2023-06-22T06:51:30;20.00;99.90
21149;DHT22;10732;51.472;6.466;2023-06-22T06:53:56;19.90;99.90
21149;DHT22;10732;51.472;6.466;2023-06-22T06:56:21;19.90;99.90
21149;DHT22;10732;51.472;6.466;2023-06-22T06:58:50;20.00;99.90
21149;DHT22;10732;51.472;6.466;2023-06-22T07:01:15;20.10;99.90
21149;DHT22;10732;51.472;6.466;2023-06-22T07:03:41;20.20;99.90
21149;DHT22;10732;51.472;6.466;2023-06-22T07:06:07;20.40;99.90
21149;DHT22;10732;51.472;6.466;2023-06-22T07:08:33;20.50;99.90
21149;DHT22;10732;51.472;6.466;2023-06-22T07:11:00;20.60;99.90
21149;DHT22;10732;51.472;6.466;2023-06-22T07:13:26;20.70;99.90
21149;DHT22;10732;51.472;6.466;2023-06-22T07:15:51;20.80;99.90
21149;DHT22;10732;51.472;6.466;2023-06-22T07:18:17;21.00;94.50
21149;DHT22;10732;51.472;6.466;2023-06-22T07:20:42;21.00;90.10
21149;DHT22;10732;51.472;6.466;2023-06-22T07:23:08;21.10;52.60
21149;DHT22;10732;51.472;6.466;2023-06-22T07:25:33;21.20;1.00
21149;DHT22;10732;51.472;6.466;2023-06-22T07:28:04;21.30;1.00
21149;DHT22;10732;51.472;6.466;2023-06-22T07:30:31;21.40;1.00
21149;DHT22;10732;51.472;6.466;2023-06-22T07:32:57;21.50;1.00
21149;DHT22;10732;51.472;6.466;2023-06-22T07:35:23;21.50;1.00
21149;DHT22;10732;51.472;6.466;2023-06-22T07:37:49;21.50;1.00
21149;DHT22;10732;51.472;6.466;2023-06-22T07:40:14;21.40;1.00
21149;DHT22;10732;51.472;6.466;2023-06-22T07:42:40;21.30;1.00
21149;DHT22;10732;51.472;6.466;2023-06-22T07:45:07;21.40;1.00
21149;DHT22;10732;51.472;6.466;2023-06-22T07:47:35;21.60;1.00
21149;DHT22;10732;51.472;6.466;2023-06-22T07:50:02;21.50;1.00
21149;DHT22;10732;51.472;6.466;2023-06-22T07:52:28;21.50;1.00
21149;DHT22;10732;51.472;6.466;2023-06-22T07:54:53;21.70;1.00
21149;DHT22;10732;51.472;6.466;2023-06-22T07:57:20;21.80;1.00
21149;DHT22;10732;51.472;6.466;2023-06-22T07:59:45;22.20;99.90
21149;DHT22;10732;51.472;6.466;2023-06-22T08:02:11;22.40;1.00
21149;DHT22;10732;51.472;6.466;2023-06-22T08:04:37;22.50;1.00
21149;DHT22;10732;51.472;6.466;2023-06-22T08:07:03;22.80;1.00
21149;DHT22;10732;51.472;6.466;2023-06-22T08:09:30;22.90;1.00
21149;DHT22;10732;51.472;6.466;2023-06-22T08:11:56;22.90;99.90
21149;DHT22;10732;51.472;6.466;2023-06-22T08:14:23;22.60;1.00
21149;DHT22;10732;51.472;6.466;2023-06-22T08:16:48;22.40;99.90
21149;DHT22;10732;51.472;6.466;2023-06-22T08:19:14;22.00;99.90
21149;DHT22;10732;51.472;6.466;2023-06-22T08:21:39;22.10;1.00
21149;DHT22;10732;51.472;6.466;2023-06-22T08:24:05;22.20;1.00
21149;DHT22;10732;51.472;6.466;2023-06-22T08:26:32;22.30;99.90
21149;DHT22;10732;51.472;6.466;2023-06-22T08:29:01;22.00;28.20
21149;DHT22;10732;51.472;6.466;2023-06-22T08:31:27;21.90;1.00
21149;DHT22;10732;51.472;6.466;2023-06-22T08:33:53;21.80;99.90
21149;DHT22;10732;51.472;6.466;2023-06-22T08:36:18;21.90;1.00
21149;DHT22;10732;51.472;6.466;2023-06-22T08:38:44;21.80;1.00
21149;DHT22;10732;51.472;6.466;2023-06-22T08:41:10;21.70;1.00
21149;DHT22;10732;51.472;6.466;2023-06-22T08:43:36;21.70;99.90
21149;DHT22;10732;51.472;6.466;2023-06-22T08:46:01;21.80;99.90
21149;DHT22;10732;51.472;6.466;2023-06-22T08:48:29;21.80;1.00
21149;DHT22;10732;51.472;6.466;2023-06-22T08:50:54;21.90;1.00
21149;DHT22;10732;51.472;6.466;2023-06-22T08:53:20;21.60;99.90
21149;DHT22;10732;51.472;6.466;2023-06-22T08:55:46;21.60;1.00
21149;DHT22;10732;51.472;6.466;2023-06-22T08:58:11;21.70;1.00
21149;DHT22;10732;51.472;6.466;2023-06-22T09:00:37;21.80;1.00
21149;DHT22;10732;51.472;6.466;2023-06-22T09:03:02;22.10;1.00
21149;DHT22;10732;51.472;6.466;2023-06-22T09:05:29;22.30;1.00
21149;DHT22;10732;51.472;6.466;2023-06-22T09:07:56;22.40;1.00
21149;DHT22;10732;51.472;6.466;2023-06-22T09:10:24;22.40;1.00
21149;DHT22;10732;51.472;6.466;2023-06-22T09:12:49;22.40;99.90
21149;DHT22;10732;51.472;6.466;2023-06-22T09:15:15;22.20;1.00
21149;DHT22;10732;51.472;6.466;2023-06-22T09:17:41;22.30;1.00
21149;DHT22;10732;51.472;6.466;2023-06-22T09:20:07;22.30;1.00
21149;DHT22;10732;51.472;6.466;2023-06-22T09:22:35;22.30;99.90
21149;DHT22;10732;51.472;6.466;2023-06-22T09:25:01;22.30;1.00
21149;DHT22;10732;51.472;6.466;2023-06-22T09:27:28;22.40;1.00
21149;DHT22;10732;51.472;6.466;2023-06-22T09:29:54;22.20;1.00
21149;DHT22;10732;51.472;6.466;2023-06-22T09:32:19;22.30;1.00
21149;DHT22;10732;51.472;6.466;2023-06-22T09:34:45;22.40;1.00
21149;DHT22;10732;51.472;6.466;2023-06-22T09:37:10;22.60;99.90
21149;DHT22;10732;51.472;6.466;2023-06-22T09:39:36;22.90;99.90
21149;DHT22;10732;51.472;6.466;2023-06-22T09:42:02;22.90;99.90
21149;DHT22;10732;51.472;6.466;2023-06-22T09:44:28;22.80;99.90
21149;DHT22;10732;51.472;6.466;2023-06-22T09:46:53;22.80;99.90
21149;DHT22;10732;51.472;6.466;2023-06-22T09:49:19;22.80;99.90
21149;DHT22;10732;51.472;6.466;2023-06-22T09:51:44;22.90;99.90
21149;DHT22;10732;51.472;6.466;2023-06-22T09:54:10;22.80;99.90
21149;DHT22;10732;51.472;6.466;2023-06-22T09:56:35;22.90;99.90
21149;DHT22;10732;51.472;6.466;2023-06-22T09:59:03;22.90;1.00
21149;DHT22;10732;51.472;6.466;2023-06-22T10:01:28;23.10;99.90
21149;DHT22;10732;51.472;6.466;2023-06-22T10:03:55;23.20;99.90
21149;DHT22;10732;51.472;6.466;2023-06-22T10:06:21;23.40;99.90
21149;DHT22;10732;51.472;6.466;2023-06-22T10:08:47;23.80;23.40
21149;DHT22;10732;51.472;6.466;2023-06-22T10:11:14;23.60;99.90
21149;DHT22;10732;51.472;6.466;2023-06-22T10:13:39;23.80;1.00
21149;DHT22;10732;51.472;6.466;2023-06-22T10:16:05;24.00;99.90
21149;DHT22;10732;51.472;6.466;2023-06-22T10:18:30;24.20;1.00
21149;DHT22;10732;51.472;6.466;2023-06-22T10:20:56;24.20;1.00
21149;DHT22;10732;51.472;6.466;2023-06-22T10:23:22;24.10;13.90
21149;DHT22;10732;51.472;6.466;2023-06-22T10:25:48;24.10;99.90
21149;DHT22;10732;51.472;6.466;2023-06-22T10:28:14;24.30;1.00
21149;DHT22;10732;51.472;6.466;2023-06-22T10:30:40;24.40;1.00
21149;DHT22;10732;51.472;6.466;2023-06-22T10:33:09;24.90;1.00
21149;DHT22;10732;51.472;6.466;2023-06-22T10:35:35;25.10;1.00
21149;DHT22;10732;51.472;6.466;2023-06-22T10:38:02;25.30;99.90
21149;DHT22;10732;51.472;6.466;2023-06-22T10:40:28;25.40;1.00
21149;DHT22;10732;51.472;6.466;2023-06-22T10:42:54;25.50;99.90
21149;DHT22;10732;51.472;6.466;2023-06-22T10:45:19;25.30;1.00
21149;DHT22;10732;51.472;6.466;2023-06-22T10:47:45;25.30;1.00
21149;DHT22;10732;51.472;6.466;2023-06-22T10:50:11;24.90;99.90
21149;DHT22;10732;51.472;6.466;2023-06-22T10:52:36;24.50;99.90
21149;DHT22;10732;51.472;6.466;2023-06-22T10:55:02;24.60;13.70
21149;DHT22;10732;51.472;6.466;2023-06-22T10:57:28;24.60;1.00
21149;DHT22;10732;51.472;6.466;2023-06-22T10:59:53;24.30;1.00
21149;DHT22;10732;51.472;6.466;2023-06-22T11:02:19;24.00;1.00
21149;DHT22;10732;51.472;6.466;2023-06-22T11:04:44;23.70;1.00
21149;DHT22;10732;51.472;6.466;2023-06-22T11:07:11;23.80;1.00
21149;DHT22;10732;51.472;6.466;2023-06-22T11:09:36;24.00;1.00
21149;DHT22;10732;51.472;6.466;2023-06-22T11:12:04;24.00;1.00
21149;DHT22;10732;51.472;6.466;2023-06-22T11:14:29;24.00;1.00
21149;DHT22;10732;51.472;6.466;2023-06-22T11:16:55;24.00;1.00
21149;DHT22;10732;51.472;6.466;2023-06-22T11:19:21;24.00;1.00
21149;DHT22;10732;51.472;6.466;2023-06-22T11:21:47;24.00;1.00
21149;DHT22;10732;51.472;6.466;2023-06-22T11:24:12;24.10;1.00
21149;DHT22;10732;51.472;6.466;2023-06-22T11:26:38;24.10;18.10
21149;DHT22;10732;51.472;6.466;2023-06-22T11:29:03;24.20;1.00
21149;DHT22;10732;51.472;6.466;2023-06-22T11:31:31;24.40;1.00
21149;DHT22;10732;51.472;6.466;2023-06-22T11:33:57;24.30;14.00
21149;DHT22;10732;51.472;6.466;2023-06-22T11:36:23;24.20;1.00
21149;DHT22;10732;51.472;6.466;2023-06-22T11:38:48;24.20;74.50
21149;DHT22;10732;51.472;6.466;2023-06-22T11:41:14;24.00;99.90
21149;DHT22;10732;51.472;6.466;2023-06-22T11:43:40;23.60;1.00
21149;DHT22;10732;51.472;6.466;2023-06-22T11:46:05;23.30;1.00
21149;DHT22;10732;51.472;6.466;2023-06-22T11:48:31;23.20;99.90
21149;DHT22;10732;51.472;6.466;2023-06-22T11:50:57;23.00;99.90
21149;DHT22;10732;51.472;6.466;2023-06-22T11:53:24;22.80;99.90
21149;DHT22;10732;51.472;6.466;2023-06-22T11:55:50;22.70;99.90
21149;DHT22;10732;51.472;6.466;2023-06-22T11:58:16;22.60;99.90
21149;DHT22;10732;51.472;6.466;2023-06-22T12:00:41;22.60;99.90
21149;DHT22;10732;51.472;6.466;2023-06-22T12:03:07;22.50;99.90
21149;DHT22;10732;51.472;6.466;2023-06-22T12:05:33;22.30;99.90
21149;DHT22;10732;51.472;6.466;2023-06-22T12:07:58;21.90;99.90
21149;DHT22;10732;51.472;6.466;2023-06-22T12:10:25;21.80;99.90
21149;DHT22;10732;51.472;6.466;2023-06-22T12:12:51;21.90;99.90
21149;DHT22;10732;51.472;6.466;2023-06-22T12:15:17;22.10;99.90
21149;DHT22;10732;51.472;6.466;2023-06-22T12:17:42;22.30;99.90
21149;DHT22;10732;51.472;6.466;2023-06-22T12:20:08;22.50;99.90
21149;DHT22;10732;51.472;6.466;2023-06-22T12:22:34;23.00;99.90
21149;DHT22;10732;51.472;6.466;2023-06-22T12:25:00;23.50;99.90
21149;DHT22;10732;51.472;6.466;2023-06-22T12:27:26;24.30;99.90
21149;DHT22;10732;51.472;6.466;2023-06-22T12:29:52;24.40;99.90
21149;DHT22;10732;51.472;6.466;2023-06-22T12:32:18;24.20;99.90
21149;DHT22;10732;51.472;6.466;2023-06-22T12:34:44;23.80;99.90
21149;DHT22;10732;51.472;6.466;2023-06-22T12:37:10;24.10;99.90
21149;DHT22;10732;51.472;6.466;2023-06-22T12:39:35;24.30;99.90
21149;DHT22;10732;51.472;6.466;2023-06-22T12:42:01;24.30;99.90
21149;DHT22;10732;51.472;6.466;2023-06-22T12:44:26;24.60;99.90
21149;DHT22;10732;51.472;6.466;2023-06-22T12:46:52;24.80;99.90
21149;DHT22;10732;51.472;6.466;2023-06-22T12:49:17;25.20;1.00
21149;DHT22;10732;51.472;6.466;2023-06-22T12:51:44;25.40;48.70
21149;DHT22;10732;51.472;6.466;2023-06-22T12:54:10;24.70;47.20
21149;DHT22;10732;51.472;6.466;2023-06-22T12:56:36;25.20;1.00
21149;DHT22;10732;51.472;6.466;2023-06-22T12:59:02;25.50;1.00
21149;DHT22;10732;51.472;6.466;2023-06-22T13:01:28;25.00;99.90
21149;DHT22;10732;51.472;6.466;2023-06-22T13:03:54;24.80;29.90
21149;DHT22;10732;51.472;6.466;2023-06-22T13:06:19;24.10;1.00
21149;DHT22;10732;51.472;6.466;2023-06-22T13:08:45;24.30;1.00
21149;DHT22;10732;51.472;6.466;2023-06-22T13:11:11;24.80;1.00
21149;DHT22;10732;51.472;6.466;2023-06-22T13:13:36;24.80;1.00
21149;DHT22;10732;51.472;6.466;2023-06-22T13:16:02;24.80;99.90
21149;DHT22;10732;51.472;6.466;2023-06-22T13:18:27;24.80;99.90
21149;DHT22;10732;51.472;6.466;2023-06-22T13:20:53;24.30;1.00
21149;DHT22;10732;51.472;6.466;2023-06-22T13:23:20;24.00;99.90
21149;DHT22;10732;51.472;6.466;2023-06-22T13:25:46;23.90;1.00
21149;DHT22;10732;51.472;6.466;2023-06-22T13:28:12;23.70;1.00
21149;DHT22;10732;51.472;6.466;2023-06-22T13:30:39;23.30;1.00
21149;DHT22;10732;51.472;6.466;2023-06-22T13:33:05;23.20;99.90
21149;DHT22;10732;51.472;6.466;2023-06-22T13:35:30;22.90;99.90
21149;DHT22;10732;51.472;6.466;2023-06-22T13:37:56;23.20;99.90
21149;DHT22;10732;51.472;6.466;2023-06-22T13:40:22;22.90;88.30
21149;DHT22;10732;51.472;6.466;2023-06-22T13:42:47;22.90;99.90
21149;DHT22;10732;51.472;6.466;2023-06-22T13:45:13;23.10;99.40
21149;DHT22;10732;51.472;6.466;2023-06-22T13:47:39;22.90;99.90
21149;DHT22;10732;51.472;6.466;2023-06-22T13:50:05;22.80;95.20
21149;DHT22;10732;51.472;6.466;2023-06-22T13:52:31;22.70;99.90
21149;DHT22;10732;51.472;6.466;2023-06-22T13:54:56;22.90;99.90
21149;DHT22;10732;51.472;6.466;2023-06-22T13:57:22;22.80;99.90
21149;DHT22;10732;51.472;6.466;2023-06-22T13:59:48;22.80;99.90
21149;DHT22;10732;51.472;6.466;2023-06-22T14:02:13;22.70;99.90
21149;DHT22;10732;51.472;6.466;2023-06-22T14:04:39;22.70;99.90
21149;DHT22;10732;51.472;6.466;2023-06-22T14:07:04;22.70;99.90
21149;DHT22;10732;51.472;6.466;2023-06-22T14:09:30;22.70;99.90
21149;DHT22;10732;51.472;6.466;2023-06-22T14:11:55;22.80;99.90
21149;DHT22;10732;51.472;6.466;2023-06-22T14:14:21;22.80;99.90
21149;DHT22;10732;51.472;6.466;2023-06-22T14:16:47;22.80;99.90
21149;DHT22;10732;51.472;6.466;2023-06-22T14:19:16;23.20;99.90
21149;DHT22;10732;51.472;6.466;2023-06-22T14:21:41;23.20;1.00
21149;DHT22;10732;51.472;6.466;2023-06-22T14:24:07;23.30;1.00
21149;DHT22;10732;51.472;6.466;2023-06-22T14:26:33;23.10;95.00
21149;DHT22;10732;51.472;6.466;2023-06-22T14:28:58;22.70;99.90
21149;DHT22;10732;51.472;6.466;2023-06-22T14:31:24;22.60;99.90
21149;DHT22;10732;51.472;6.466;2023-06-22T14:33:49;22.60;99.90
21149;DHT22;10732;51.472;6.466;2023-06-22T14:36:16;22.60;99.90
21149;DHT22;10732;51.472;6.466;2023-06-22T14:38:42;22.80;99.90
21149;DHT22;10732;51.472;6.466;2023-06-22T14:41:08;22.90;66.30
21149;DHT22;10732;51.472;6.466;2023-06-22T14:43:34;22.60;99.90
21149;DHT22;10732;51.472;6.466;2023-06-22T14:45:59;22.30;99.90
21149;DHT22;10732;51.472;6.466;2023-06-22T14:48:25;22.40;99.90
21149;DHT22;10732;51.472;6.466;2023-06-22T14:50:51;22.70;99.90
21149;DHT22;10732;51.472;6.466;2023-06-22T14:53:16;22.70;99.70
21149;DHT22;10732;51.472;6.466;2023-06-22T14:55:42;22.70;99.90
21149;DHT22;10732;51.472;6.466;2023-06-22T14:58:07;22.60;99.90
21149;DHT22;10732;51.472;6.466;2023-06-22T15:00:33;22.50;99.90
21149;DHT22;10732;51.472;6.466;2023-06-22T15:02:58;22.30;99.90
21149;DHT22;10732;51.472;6.466;2023-06-22T15:05:25;22.30;99.90
21149;DHT22;10732;51.472;6.466;2023-06-22T15:07:50;22.20;99.90
21149;DHT22;10732;51.472;6.466;2023-06-22T15:10:16;22.10;99.90
21149;DHT22;10732;51.472;6.466;2023-06-22T15:12:42;22.10;99.90
21149;DHT22;10732;51.472;6.466;2023-06-22T15:15:08;22.00;99.90
21149;DHT22;10732;51.472;6.466;2023-06-22T15:17:33;21.80;99.90
21149;DHT22;10732;51.472;6.466;2023-06-22T15:19:59;21.80;99.90
21149;DHT22;10732;51.472;6.466;2023-06-22T15:22:25;21.80;99.90
21149;DHT22;10732;51.472;6.466;2023-06-22T15:24:50;21.80;99.90
21149;DHT22;10732;51.472;6.466;2023-06-22T15:27:19;21.70;99.90
21149;DHT22;10732;51.472;6.466;2023-06-22T15:29:44;21.60;99.90
21149;DHT22;10732;51.472;6.466;2023-06-22T15:32:10;21.60;99.90
21149;DHT22;10732;51.472;6.466;2023-06-22T15:34:36;21.50;99.90